My Meet Scores
Isabella Evans, Kinetic Gymnastics - MyMeetScores.com
Top100 | Top Teams | Upcoming Meets | Completed Meets | Latest | Add Scores | Help| Support | Bookmark and Share

Isabella Evans, Kinetic Gymnastics
Personal Bests
LevelVault BarsBeamFloorAA
39.2008.150 8.8259.27535.025
48.6757.700 9.2508.80033.700
XB9.0509.100 9.3509.20036.250
Meet Scores
Date Meet Team Session Level Division Vault Bars Beam Floor AA
2019-11-16 Colorado Level 4 State Kinetic Gymnastics 1 4 Jr. 3C 8.675 10 7.100 13 9.250 2 8.675 9 33.700 9
2019-10-18 2019 Pink Ribbon Invitational Kinetic Gymnastics 4 4 Sr A 7.975 8 7.675 12 9.050 3 8.450 14 33.150 9
2019-10-05 2019 Judge's Cup NAWGJ Colorado Kinetic Gymnastics 3 4 Junior 7.950 13 7.550 14 8.850 6 8.450 13 32.800 13
2019-09-27 2019 CGI Autumn Classic Kinetic Gymnastics 4 4 CH B 7.925 12 7.000 14 9.175 4 8.500 9 32.600 11
2019-09-14 2019 AGA Septemberfest Kinetic Gymnastics 3 4 All 8.375 10 7.700 16T 8.600 7 8.800 10 33.475 10
2018-11-03 Level 3 State Kinetic Gymnastics 3 3 Youth 9.125 9T 7.900 13 8.725 1 9.275 5 35.025 9
2018-10-27 Xtreme Altitude Fall Classic Kinetic Gymnastics 1 3 Junior 9.150 5 7.500 23 8.825 5 9.075 2 34.550 10
2018-10-20 2018 JET Pink Ribbon Invitational Kinetic Gymnastics 2 3 Sr A 9.200 5T 6.900 11 8.300 9 9.025 4 33.425 9
2018-10-06 2018 AGA Rocktoberfest Kinetic Gymnastics 1 3 SR 8.500 17 7.800 20T 8.425 8 8.950 4 33.675 16
2018-09-15 2018 Cgi Autumn Classic Kinetic Gymnastics 2 3 JR C 9.075 8T 8.150 11 8.525 5 8.800 8 34.550 7
2018-08-25 2018 Summer Carnival Kinetic Gymnastics 2 3 Middle 8.775 24 7.450 35 8.125 10 8.775 12T 33.125 24
2017-12-09 Level 3 State Championships Kinetic Gymnastics 1 3 Jr B 8.700 9 7.400 12 8.350 8 8.600 5T 33.050 10
2017-11-11 2017 AGA Compulsory Meet Kinetic Gymnastics 1 3 Jr 8.550 17 5.700 20 7.950 16 8.850 13 31.050 20
2017-11-04 Mile High Salute Kinetic Gymnastics 1 3 Group 1 8.400 10T 6.150 13 7.950 11 8.375 10 30.875 13
2017-10-21 JET Gymnastics Pink Ribbon Invitational Kinetic Gymnastics 4 3 Jr B 8.700 12 0.000 13 8.150 12 8.725 11 25.575 13
2017-10-06 Aspen Gymnastics Invitational Kinetic Gymnastics 5 3 Jr A 9.100 7T 0.000 18 8.000 16T 9.000 11T 26.100 18
2017-06-10 2017 Colorado Xcel Bronze State Championships Kinetic Gymnastics 3 XB Jr A 9.000 9T 9.000 11T 8.550 9 8.950 13T 35.500 11
2017-05-20 2017 Cartwheel Carnival Kinetic Gymnastics 6 XB Child 1 9.000 5T 9.050 4T 8.900 5 9.200 5T 36.150 5
2017-05-06 Xcel Xtravaganza Kinetic Gymnastics 4 XB Youth 9.050 16T 9.100 18 9.250 14 8.850 18 36.250 18
2017-03-17 Peak Live Love Gymnastics 2017 Kinetic Gymnastics 9 XB JR B 9.000 6 9.050 12T 8.750 9 8.800 15T 35.600 9
2017-03-03 2017 CSI Colorado Sky Invitational Kinetic Gymnastics 6B XB Junior 8.350 4 8.750 8 9.350 3 9.150 5T 35.600 3
Get your scores on
a t-shirt, pin, or hoodie

www.lazysuits.com